M/y Australis — ZGAH4 — position and weather

sailwx.info

Track history (hours):
 
Tides and Currents Weather Stations Pressure Air Temp Water Temp Dewpoint Dewpoint Depression Visibility Wind Speed Wind Dir Waves Ship Positions

M/y Australis

Last reported at 2015-Aug-05 05:32 UTC. Time now 2015-Aug-05 06:24 UTC.
Position N 36°25' E 025°25'.

Length 48 m; draft 2.5 m.

Type: Pleasure craft. MMSI: 319016800.

Date/timePositionNaut miles runAvg speedWind from/ knotsBaromVisibWave heightAir tempDewpointWater temp
2015-Aug-05 05:32N 36°25' E 025°25'0 0.0
2015-Aug-05 04:32N 36°25' E 025°26'0 0.0
2015-Aug-05 03:32N 36°25' E 025°26'0 0.0
2015-Aug-05 02:29N 36°25' E 025°25'0 0.0
2015-Aug-05 01:31N 36°25' E 025°26'0 0.0
2015-Aug-05 00:31N 36°25' E 025°26'0 0.0
2015-Aug-04 23:31N 36°25' E 025°26'2 1.6
2015-Aug-04 22:33N 36°23' E 025°26'112 7.0
2015-Aug-04 06:30N 37°44' E 023°49'5 5.2
2015-Aug-04 05:32N 37°49' E 023°46'0 0.0
2015-Aug-04 04:32N 37°49' E 023°46'0 0.0
2015-Aug-04 03:29N 37°49' E 023°46'0 0.0
2015-Aug-04 02:32N 37°49' E 023°46'0 0.0
2015-Aug-04 01:32N 37°49' E 023°46'0 0.0
2015-Aug-04 00:32N 37°49' E 023°46'0 0.0
2015-Aug-03 23:29N 37°49' E 023°46'0 0.0
2015-Aug-03 22:32N 37°49' E 023°46'0 0.0
2015-Aug-03 21:29N 37°49' E 023°46'0 0.0
2015-Aug-03 20:32N 37°49' E 023°46'0 0.0
2015-Aug-03 19:32N 37°49' E 023°46'0 0.0
2015-Aug-03 18:32N 37°49' E 023°46'0 0.0
2015-Aug-03 17:32N 37°49' E 023°46'0 0.0
2015-Aug-03 16:32N 37°49' E 023°46'0 0.0
2015-Aug-03 15:32N 37°49' E 023°46'0 0.0
2015-Aug-03 14:32N 37°49' E 023°46'0 0.0
2015-Aug-03 13:32N 37°49' E 023°46'0 0.4
2015-Aug-03 12:33N 37°48' E 023°45'1111.1
2015-Aug-03 11:33N 37°51' E 023°32'  
2015-Jul-31 16:32N 42°08' E 018°38'1312.9
2015-Jul-31 15:33N 42°20' E 018°34'6 6.3
2015-Jul-31 14:33N 42°26' E 018°38'2 2.3
2015-Jul-31 13:31N 42°26' E 018°41'0 0.0
2015-Jul-31 12:31N 42°26' E 018°41'0 0.0
2015-Jul-31 11:28N 42°26' E 018°41'0 0.0
2015-Jul-31 10:31N 42°26' E 018°41'0 0.0
2015-Jul-31 09:31N 42°26' E 018°41'0 0.0
2015-Jul-31 08:31N 42°26' E 018°41'0 0.0
2015-Jul-31 07:31N 42°26' E 018°41'0 0.0
2015-Jul-31 06:33N 42°26' E 018°41'1 0.7
2015-Jul-31 05:34N 42°26' E 018°40'0 0.0
2015-Jul-31 04:34N 42°26' E 018°41'0 0.0
2015-Jul-31 03:34N 42°26' E 018°40'0 0.0
2015-Jul-31 02:34N 42°26' E 018°40'0 0.0
2015-Jul-31 01:34N 42°26' E 018°40'5 5.2
2015-Jul-31 00:34N 42°26' E 018°33'  
Track history (hours):
 
Tides and Currents Weather Stations Pressure Air Temp Water Temp Dewpoint Dewpoint Depression Visibility Wind Speed Wind Dir Waves Ship Positions

M/y Australis

Last reported at 2015-Aug-05 05:32 UTC. Time now 2015-Aug-05 06:24 UTC.
Position N 36°25' E 025°25'.

Length 48 m; draft 2.5 m.

Type: Pleasure craft. MMSI: 319016800.

Date/timePositionNaut miles runAvg speedWind from/ knotsBaromVisibWave heightAir tempDewpointWater temp
2015-Aug-05 05:32N 36°25' E 025°25'0 0.0
2015-Aug-05 04:32N 36°25' E 025°26'0 0.0
2015-Aug-05 03:32N 36°25' E 025°26'0 0.0
2015-Aug-05 02:29N 36°25' E 025°25'0 0.0
2015-Aug-05 01:31N 36°25' E 025°26'0 0.0
2015-Aug-05 00:31N 36°25' E 025°26'0 0.0
2015-Aug-04 23:31N 36°25' E 025°26'2 1.6
2015-Aug-04 22:33N 36°23' E 025°26'112 7.0
2015-Aug-04 06:30N 37°44' E 023°49'5 5.2
2015-Aug-04 05:32N 37°49' E 023°46'0 0.0
2015-Aug-04 04:32N 37°49' E 023°46'0 0.0
2015-Aug-04 03:29N 37°49' E 023°46'0 0.0
2015-Aug-04 02:32N 37°49' E 023°46'0 0.0
2015-Aug-04 01:32N 37°49' E 023°46'0 0.0
2015-Aug-04 00:32N 37°49' E 023°46'0 0.0
2015-Aug-03 23:29N 37°49' E 023°46'0 0.0
2015-Aug-03 22:32N 37°49' E 023°46'0 0.0
2015-Aug-03 21:29N 37°49' E 023°46'0 0.0
2015-Aug-03 20:32N 37°49' E 023°46'0 0.0
2015-Aug-03 19:32N 37°49' E 023°46'0 0.0
2015-Aug-03 18:32N 37°49' E 023°46'0 0.0
2015-Aug-03 17:32N 37°49' E 023°46'0 0.0
2015-Aug-03 16:32N 37°49' E 023°46'0 0.0
2015-Aug-03 15:32N 37°49' E 023°46'0 0.0
2015-Aug-03 14:32N 37°49' E 023°46'0 0.0
2015-Aug-03 13:32N 37°49' E 023°46'0 0.4
2015-Aug-03 12:33N 37°48' E 023°45'1111.1
2015-Aug-03 11:33N 37°51' E 023°32'  
2015-Jul-31 16:32N 42°08' E 018°38'1312.9
2015-Jul-31 15:33N 42°20' E 018°34'6 6.3
2015-Jul-31 14:33N 42°26' E 018°38'2 2.3
2015-Jul-31 13:31N 42°26' E 018°41'0 0.0
2015-Jul-31 12:31N 42°26' E 018°41'0 0.0
2015-Jul-31 11:28N 42°26' E 018°41'0 0.0
2015-Jul-31 10:31N 42°26' E 018°41'0 0.0
2015-Jul-31 09:31N 42°26' E 018°41'0 0.0
2015-Jul-31 08:31N 42°26' E 018°41'0 0.0
2015-Jul-31 07:31N 42°26' E 018°41'0 0.0
2015-Jul-31 06:33N 42°26' E 018°41'1 0.7
2015-Jul-31 05:34N 42°26' E 018°40'0 0.0
2015-Jul-31 04:34N 42°26' E 018°41'0 0.0
2015-Jul-31 03:34N 42°26' E 018°40'0 0.0
2015-Jul-31 02:34N 42°26' E 018°40'0 0.0
2015-Jul-31 01:34N 42°26' E 018°40'5 5.2
2015-Jul-31 00:34N 42°26' E 018°33'  

Dump ship's entire track history